Time;durP1;ratioP1;P1;durP2;ratioP2;P2;SDS_P1;SDS_P2;PMS_P1;PMS_P2;Temp;Humidity;BMP_temperature;BMP_pressure;BME280_temperature;BME280_humidity;BME280_pressure;Samples;Min_cycle;Max_cycle;Signal;HPM_P1;HPM_P2
2023/08/21 00:00:05;;;;;;;11.30;6.30;;;12.70;99.90;;;;;;5065146;28;20067;-25
2023/08/21 00:02:31;;;;;;;9.07;5.50;;;12.80;99.90;;;;;;5042040;28;20049;-25
2023/08/21 00:04:57;;;;;;;9.90;6.03;;;12.70;99.90;;;;;;5060551;28;20044;-25
2023/08/21 00:07:23;;;;;;;7.80;5.07;;;12.70;99.90;;;;;;5075315;28;20449;-25
2023/08/21 00:09:50;;;;;;;5.90;3.80;;;12.70;99.90;;;;;;5076491;28;20478;-25
2023/08/21 00:12:15;;;;;;;6.03;3.97;;;12.60;99.90;;;;;;5074337;28;20124;-25
2023/08/21 00:14:41;;;;;;;7.88;4.57;;;12.60;99.90;;;;;;5075975;28;20133;-25
2023/08/21 00:17:07;;;;;;;11.85;5.30;;;12.50;99.90;;;;;;5072822;28;20052;-25
2023/08/21 00:19:34;;;;;;;17.02;4.90;;;12.50;99.90;;;;;;5055330;28;20045;-25
2023/08/21 00:22:00;;;;;;;15.40;4.57;;;12.60;99.90;;;;;;5056209;28;20044;-25
2023/08/21 00:24:25;;;;;;;7.32;4.07;;;12.70;99.90;;;;;;5056190;28;20128;-25
2023/08/21 00:26:51;;;;;;;8.18;3.45;;;12.70;99.90;;;;;;5056161;28;20106;-25
2023/08/21 00:29:17;;;;;;;7.65;4.60;;;12.60;99.90;;;;;;5071151;28;20052;-25
2023/08/21 00:31:42;;;;;;;11.07;4.43;;;12.60;99.90;;;;;;5055828;28;20081;-25
2023/08/21 00:34:08;;;;;;;7.85;4.20;;;12.70;99.90;;;;;;5062283;28;20043;-25
2023/08/21 00:36:34;;;;;;;9.65;6.20;;;12.60;99.90;;;;;;5055978;28;20045;-25
2023/08/21 00:38:59;;;;;;;13.20;7.45;;;12.60;99.90;;;;;;5058888;28;20090;-25
2023/08/21 00:41:25;;;;;;;17.25;9.15;;;12.60;99.90;;;;;;5068913;28;20053;-25
2023/08/21 00:43:51;;;;;;;12.80;6.80;;;12.70;99.90;;;;;;5070691;28;20563;-25
2023/08/21 00:46:17;;;;;;;12.38;7.43;;;12.80;99.90;;;;;;5056606;28;20045;-25
2023/08/21 00:48:44;;;;;;;12.95;6.63;;;12.70;99.90;;;;;;5055286;28;20056;-25
2023/08/21 00:51:11;;;;;;;18.63;9.60;;;12.70;99.90;;;;;;5055733;28;20060;-25
2023/08/21 00:53:38;;;;;;;19.60;9.00;;;12.70;99.90;;;;;;5063476;28;20045;-25
2023/08/21 00:56:04;;;;;;;12.07;8.20;;;12.70;99.90;;;;;;5059803;28;20048;-25
2023/08/21 00:58:30;;;;;;;13.02;8.48;;;12.70;99.90;;;;;;5070155;28;20094;-24
2023/08/21 01:00:57;;;;;;;15.68;8.73;;;12.70;99.90;;;;;;5058820;28;20445;-25
2023/08/21 01:03:24;;;;;;;15.65;9.13;;;12.60;99.90;;;;;;5064601;28;20097;-25
2023/08/21 01:05:51;;;;;;;19.98;12.23;;;12.60;99.90;;;;;;5073968;28;20612;-25
2023/08/21 01:08:42;;;;;;;24.58;13.07;;;12.50;99.90;;;;;;5058096;28;20075;-25
2023/08/21 01:11:23;;;;;;;25.92;13.43;;;12.50;99.90;;;;;;5055432;28;20057;-25
2023/08/21 01:14:11;;;;;;;33.97;16.52;;;12.60;99.90;;;;;;5054118;28;20136;-25
2023/08/21 01:16:39;;;;;;;31.50;15.73;;;12.60;99.90;;;;;;5055860;28;20088;-25
2023/08/21 01:19:24;;;;;;;31.50;16.08;;;12.50;99.90;;;;;;5055613;28;20128;-25
2023/08/21 01:21:50;;;;;;;26.45;15.68;;;12.60;99.90;;;;;;5054020;28;20529;-25
2023/08/21 01:24:19;;;;;;;28.83;17.15;;;12.60;99.90;;;;;;5054128;28;20053;-25
2023/08/21 01:26:45;;;;;;;23.88;15.38;;;12.60;99.90;;;;;;5055859;28;20045;-25
2023/08/21 01:29:11;;;;;;;33.65;15.57;;;12.60;99.90;;;;;;5054848;28;20383;-25
2023/08/21 01:31:40;;;;;;;66.40;16.33;;;12.70;99.90;;;;;;5054883;28;20131;-24
2023/08/21 01:34:11;;;;;;;23.80;13.43;;;12.70;99.90;;;;;;5055162;28;20052;-25
2023/08/21 01:36:37;;;;;;;29.80;14.50;;;12.60;99.90;;;;;;5066560;28;20071;-24
2023/08/21 01:39:03;;;;;;;15.85;10.80;;;12.60;99.90;;;;;;5054777;28;20064;-24
2023/08/21 01:41:29;;;;;;;16.95;10.88;;;12.60;99.90;;;;;;5054428;28;20057;-25
2023/08/21 01:43:55;;;;;;;21.92;12.00;;;12.50;99.90;;;;;;5055194;28;20044;-25
2023/08/21 01:46:21;;;;;;;17.10;9.05;;;12.50;99.90;;;;;;5055130;28;20055;-24
2023/08/21 01:48:46;;;;;;;16.77;10.43;;;12.50;99.90;;;;;;5061115;28;20055;-24
2023/08/21 01:51:12;;;;;;;9.43;7.82;;;12.50;99.90;;;;;;5052857;28;20048;-25
2023/08/21 01:53:38;;;;;;;10.15;8.02;;;12.50;99.90;;;;;;5067692;28;20049;-24
2023/08/21 01:56:03;;;;;;;14.27;8.82;;;12.50;99.90;;;;;;5068744;28;20045;-24
2023/08/21 01:58:29;;;;;;;13.88;9.68;;;12.40;99.90;;;;;;5057344;28;20040;-24
2023/08/21 02:00:55;;;;;;;9.32;6.47;;;12.30;99.90;;;;;;5054400;28;20044;-24
2023/08/21 02:03:20;;;;;;;88.35;10.13;;;12.40;99.90;;;;;;5053614;28;20041;-24
2023/08/21 02:05:46;;;;;;;47.25;8.77;;;12.40;99.90;;;;;;5054365;28;20068;-24
2023/08/21 02:08:13;;;;;;;179.57;13.88;;;12.30;99.90;;;;;;5052818;28;20091;-24
2023/08/21 02:10:59;;;;;;;35.40;7.57;;;12.20;99.90;;;;;;5052228;28;20053;-24
2023/08/21 02:13:25;;;;;;;5.70;4.68;;;12.30;99.90;;;;;;5052558;28;20136;-24
2023/08/21 02:15:51;;;;;;;10.02;5.28;;;12.20;99.90;;;;;;5054656;28;20124;-25
2023/08/21 02:18:16;;;;;;;9.07;5.20;;;12.20;99.90;;;;;;5056130;28;20040;-24
2023/08/21 02:20:42;;;;;;;8.75;4.85;;;12.20;99.90;;;;;;5059928;28;20076;-24
2023/08/21 02:23:08;;;;;;;6.43;4.60;;;12.20;99.90;;;;;;5053781;28;20037;-25
2023/08/21 02:25:34;;;;;;;9.45;5.07;;;12.10;99.90;;;;;;5053742;28;20045;-24
2023/08/21 02:28:00;;;;;;;10.68;5.25;;;12.00;99.90;;;;;;5054533;28;20045;-24
2023/08/21 02:30:27;;;;;;;10.45;4.88;;;12.00;99.90;;;;;;5053627;28;20196;-24
2023/08/21 02:32:53;;;;;;;12.30;6.47;;;12.10;99.90;;;;;;5053501;28;20045;-24
2023/08/21 02:35:20;;;;;;;8.63;5.43;;;12.00;99.90;;;;;;5053591;28;20414;-24
2023/08/21 02:37:45;;;;;;;8.93;5.63;;;12.00;99.90;;;;;;5056748;28;20120;-24
2023/08/21 02:40:11;;;;;;;13.85;6.88;;;12.00;99.90;;;;;;5063770;28;20120;-24
2023/08/21 02:42:37;;;;;;;12.50;7.00;;;12.10;99.90;;;;;;5054958;28;20497;-24
2023/08/21 02:45:07;;;;;;;12.90;7.78;;;12.10;99.90;;;;;;5059196;28;20171;-24
2023/08/21 02:47:42;;;;;;;26.52;8.60;;;12.00;99.90;;;;;;5073046;28;20131;-24
2023/08/21 02:50:09;;;;;;;39.08;8.32;;;12.10;99.90;;;;;;5073739;28;20044;-24
2023/08/21 02:52:36;;;;;;;55.25;6.50;;;12.20;99.90;;;;;;5072420;28;20052;-24
2023/08/21 02:55:03;;;;;;;53.28;4.80;;;12.20;99.90;;;;;;5073538;28;20090;-24
2023/08/21 02:57:28;;;;;;;29.00;4.75;;;12.10;99.90;;;;;;5053703;28;20048;-24
2023/08/21 02:59:55;;;;;;;24.35;5.53;;;12.20;99.90;;;;;;5053280;28;20399;-24
2023/08/21 03:02:21;;;;;;;16.58;4.75;;;12.10;99.90;;;;;;5061680;28;20045;-24
2023/08/21 03:04:47;;;;;;;34.60;5.43;;;12.10;99.90;;;;;;5059331;28;20089;-24
2023/08/21 03:07:14;;;;;;;40.70;5.25;;;12.00;99.90;;;;;;5053113;28;20495;-24
2023/08/21 03:09:40;;;;;;;76.32;7.60;;;12.10;99.90;;;;;;5051436;28;20506;-24
2023/08/21 03:12:08;;;;;;;175.68;11.70;;;12.00;99.90;;;;;;5061668;28;20076;-23
2023/08/21 03:14:34;;;;;;;98.75;6.75;;;12.00;99.90;;;;;;5052784;28;20044;-24
2023/08/21 03:17:00;;;;;;;74.53;5.78;;;12.10;99.90;;;;;;5053173;28;20040;-25
2023/08/21 03:19:25;;;;;;;25.98;4.72;;;12.20;99.90;;;;;;5056186;28;20561;-23
2023/08/21 03:21:51;;;;;;;47.28;4.50;;;12.10;99.90;;;;;;5059841;28;20045;-23
2023/08/21 03:24:17;;;;;;;35.17;5.60;;;12.00;99.90;;;;;;5063033;28;20075;-23
2023/08/21 03:26:43;;;;;;;28.95;4.05;;;11.90;99.90;;;;;;5072903;28;20101;-23
2023/08/21 03:29:09;;;;;;;35.25;4.25;;;11.90;99.90;;;;;;5077242;28;20047;-23
2023/08/21 03:31:35;;;;;;;57.05;4.32;;;11.90;99.90;;;;;;5075692;28;20052;-23
2023/08/21 03:34:01;;;;;;;26.58;4.45;;;11.80;99.90;;;;;;5067503;28;20087;-23
2023/08/21 03:36:33;;;;;;;191.63;9.27;;;11.80;99.90;;;;;;5060163;28;20041;-23
2023/08/21 03:39:03;;;;;;;221.70;8.63;;;11.80;99.90;;;;;;5039784;28;20440;-22
2023/08/21 03:41:29;;;;;;;170.63;7.28;;;11.80;99.90;;;;;;5067766;28;20417;-23
2023/08/21 03:43:55;;;;;;;97.78;5.30;;;11.80;99.90;;;;;;5057003;28;20056;-23
2023/08/21 03:46:21;;;;;;;66.78;5.15;;;11.80;99.90;;;;;;5067498;28;20401;-23
2023/08/21 03:48:46;;;;;;;50.30;4.70;;;11.80;99.90;;;;;;5076729;28;20044;-23
2023/08/21 03:51:12;;;;;;;71.30;5.70;;;11.70;99.90;;;;;;5076811;28;20044;-23
2023/08/21 03:53:38;;;;;;;64.95;5.38;;;11.80;99.90;;;;;;5075862;28;20440;-24
2023/08/21 03:56:04;;;;;;;135.60;10.35;;;11.80;99.90;;;;;;5075799;28;20053;-23
2023/08/21 03:58:30;;;;;;;219.45;11.38;;;11.90;99.90;;;;;;5064194;28;20132;-23
2023/08/21 04:00:55;;;;;;;107.32;8.02;;;12.00;99.90;;;;;;5070121;28;20462;-23
2023/08/21 04:03:21;;;;;;;53.33;5.68;;;11.90;99.90;;;;;;5058014;28;20124;-23
2023/08/21 04:05:47;;;;;;;58.78;8.15;;;12.00;99.90;;;;;;5064409;28;20560;-22
2023/08/21 04:08:13;;;;;;;41.60;6.25;;;12.00;99.90;;;;;;5055833;28;20041;-23
2023/08/21 04:10:39;;;;;;;50.35;6.30;;;12.00;99.90;;;;;;5056280;28;20118;-23
2023/08/21 04:13:05;;;;;;;27.13;5.10;;;12.00;99.90;;;;;;5055773;28;20045;-23
2023/08/21 04:15:31;;;;;;;27.60;5.40;;;12.00;99.90;;;;;;5056297;28;20521;-22
2023/08/21 04:17:57;;;;;;;13.75;4.97;;;11.90;99.90;;;;;;5055159;28;20053;-22
2023/08/21 04:20:23;;;;;;;11.93;5.35;;;12.00;99.90;;;;;;5056316;28;20114;-23
2023/08/21 04:22:49;;;;;;;9.35;5.18;;;11.90;99.90;;;;;;5054744;28;20033;-23
2023/08/21 04:25:15;;;;;;;86.07;9.27;;;11.90;99.90;;;;;;5070392;28;20098;-22
2023/08/21 04:27:42;;;;;;;68.35;8.60;;;12.00;99.90;;;;;;5055950;28;20045;-23
2023/08/21 04:30:11;;;;;;;23.98;6.80;;;11.90;99.90;;;;;;5055216;28;20049;-22
2023/08/21 04:32:37;;;;;;;50.15;7.47;;;12.00;99.90;;;;;;5056619;28;20056;-22
2023/08/21 04:35:05;;;;;;;19.92;6.30;;;11.90;99.90;;;;;;5054462;28;20045;-22
2023/08/21 04:37:31;;;;;;;15.23;5.10;;;12.00;99.90;;;;;;5060338;28;20045;-22
2023/08/21 04:39:57;;;;;;;12.70;5.30;;;12.00;99.90;;;;;;5055694;28;20048;-22
2023/08/21 04:42:22;;;;;;;21.20;6.60;;;12.00;99.90;;;;;;5055763;28;20120;-22
2023/08/21 04:44:48;;;;;;;16.23;5.10;;;12.10;99.90;;;;;;5063216;28;20091;-22
2023/08/21 04:47:26;;;;;;;9.13;5.07;;;12.00;99.90;;;;;;5062815;28;20048;-23
2023/08/21 04:49:52;;;;;;;20.75;6.10;;;12.00;99.90;;;;;;5056305;28;20048;-22
2023/08/21 04:52:19;;;;;;;44.50;7.30;;;12.00;99.90;;;;;;5037923;28;20127;-22
2023/08/21 04:54:45;;;;;;;18.33;5.90;;;12.20;99.90;;;;;;5055574;28;20119;-22
2023/08/21 04:57:11;;;;;;;41.22;7.38;;;12.20;99.90;;;;;;5061521;28;20422;-22
2023/08/21 04:59:36;;;;;;;35.58;6.95;;;12.20;99.90;;;;;;5076415;28;20048;-22
2023/08/21 05:02:03;;;;;;;29.02;6.38;;;12.20;99.90;;;;;;5072391;28;20044;-22
2023/08/21 05:04:28;;;;;;;35.45;7.28;;;12.30;99.90;;;;;;5063167;28;20040;-22
2023/08/21 05:06:54;;;;;;;22.05;6.15;;;12.30;99.90;;;;;;5074252;28;20071;-22
2023/08/21 05:09:20;;;;;;;45.15;8.30;;;12.30;99.90;;;;;;5066427;28;20057;-22
2023/08/21 05:11:46;;;;;;;42.17;6.60;;;12.40;99.90;;;;;;5055320;28;20052;-22
2023/08/21 05:14:11;;;;;;;29.27;5.88;;;12.40;99.90;;;;;;5064986;28;20070;-22
2023/08/21 05:16:37;;;;;;;21.58;5.35;;;12.40;99.90;;;;;;5074355;28;20047;-22
2023/08/21 05:19:03;;;;;;;16.40;4.97;;;12.60;99.90;;;;;;5075765;28;20080;-22
2023/08/21 05:21:29;;;;;;;10.75;4.38;;;12.50;99.90;;;;;;5075144;28;20398;-22
2023/08/21 05:23:55;;;;;;;18.02;6.13;;;12.60;99.90;;;;;;5075116;28;20569;-23
2023/08/21 05:26:21;;;;;;;9.20;4.65;;;12.60;99.90;;;;;;5065264;28;20076;-22
2023/08/21 05:28:46;;;;;;;12.13;5.20;;;12.70;99.90;;;;;;5054072;28;20083;-23
2023/08/21 05:31:12;;;;;;;10.35;5.40;;;12.80;99.90;;;;;;5054961;28;20091;-22
2023/08/21 05:33:38;;;;;;;11.02;5.22;;;12.80;99.90;;;;;;5055261;28;20149;-22
2023/08/21 05:36:05;;;;;;;10.02;5.35;;;12.80;99.90;;;;;;5055665;28;20044;-22
2023/08/21 05:38:31;;;;;;;9.23;5.30;;;12.90;99.90;;;;;;5053802;28;20449;-23
2023/08/21 05:40:58;;;;;;;7.65;5.20;;;13.00;99.90;;;;;;5053333;28;20049;-23
2023/08/21 05:43:24;;;;;;;8.40;5.03;;;13.00;99.90;;;;;;5039003;28;20063;-22
2023/08/21 05:45:50;;;;;;;12.55;6.00;;;13.20;99.90;;;;;;5053079;28;20037;-21
2023/08/21 05:48:17;;;;;;;7.80;5.13;;;13.10;99.90;;;;;;5063107;28;20580;-22
2023/08/21 05:50:43;;;;;;;10.02;5.75;;;13.20;99.90;;;;;;5054557;28;20128;-23
2023/08/21 05:53:08;;;;;;;7.20;4.78;;;13.40;99.90;;;;;;5072982;28;20123;-23
2023/08/21 05:55:37;;;;;;;8.07;4.90;;;13.40;99.90;;;;;;5073243;28;20048;-22
2023/08/21 05:58:03;;;;;;;8.45;4.53;;;13.40;99.90;;;;;;5068962;28;20045;-22
2023/08/21 06:00:29;;;;;;;9.40;5.00;;;13.50;99.90;;;;;;5054203;28;20040;-22
2023/08/21 06:02:54;;;;;;;16.35;5.90;;;13.50;99.90;;;;;;5054081;28;20047;-23
2023/08/21 06:05:20;;;;;;;9.98;5.70;;;13.60;99.90;;;;;;5055617;28;20051;-22
2023/08/21 06:07:46;;;;;;;9.35;5.45;;;13.70;99.90;;;;;;5054366;28;20403;-23
2023/08/21 06:10:12;;;;;;;18.52;6.63;;;13.90;99.90;;;;;;5053693;28;20140;-24
2023/08/21 06:12:40;;;;;;;10.85;6.72;;;14.00;99.90;;;;;;5054191;28;20045;-23
2023/08/21 06:15:08;;;;;;;12.88;6.68;;;14.00;99.90;;;;;;5057242;28;20120;-22
2023/08/21 06:17:34;;;;;;;16.80;7.30;;;14.10;99.90;;;;;;5060203;28;20095;-23
2023/08/21 06:20:00;;;;;;;10.38;6.65;;;14.30;99.90;;;;;;5053796;28;20045;-22
2023/08/21 06:22:26;;;;;;;11.45;5.57;;;14.40;99.90;;;;;;5052757;28;20107;-23
2023/08/21 06:24:52;;;;;;;13.85;7.80;;;14.40;99.90;;;;;;5055364;28;20055;-22
2023/08/21 06:27:17;;;;;;;11.07;6.65;;;14.60;99.90;;;;;;5062987;28;20475;-22
2023/08/21 06:29:43;;;;;;;9.90;5.22;;;14.70;99.90;;;;;;5053626;28;20052;-23
2023/08/21 06:32:09;;;;;;;14.30;6.22;;;14.90;99.90;;;;;;5053843;28;20045;-23
2023/08/21 06:34:35;;;;;;;13.27;6.60;;;14.90;99.90;;;;;;5053792;28;20037;-23
2023/08/21 06:37:00;;;;;;;11.30;5.75;;;15.10;99.90;;;;;;5053868;28;20048;-23
2023/08/21 06:39:26;;;;;;;14.05;7.07;;;15.30;99.90;;;;;;5052780;28;20080;-23
2023/08/21 06:41:52;;;;;;;11.27;6.18;;;15.50;99.90;;;;;;5054569;28;20053;-23
2023/08/21 06:44:18;;;;;;;11.95;5.78;;;15.70;99.90;;;;;;5053710;28;20095;-23
2023/08/21 06:46:44;;;;;;;14.02;5.75;;;15.80;99.90;;;;;;5053674;28;20053;-23
2023/08/21 06:49:09;;;;;;;15.13;6.07;;;15.90;99.90;;;;;;5052533;28;20044;-24
2023/08/21 06:51:35;;;;;;;13.90;7.15;;;16.10;99.90;;;;;;5055217;28;20049;-23
2023/08/21 06:54:01;;;;;;;11.45;5.50;;;16.20;99.90;;;;;;5053781;28;20090;-23
2023/08/21 06:56:27;;;;;;;15.40;6.05;;;16.40;99.90;;;;;;5053877;28;20492;-23
2023/08/21 06:58:54;;;;;;;12.20;5.40;;;16.60;99.90;;;;;;5052464;28;20501;-24
2023/08/21 07:01:21;;;;;;;8.68;4.43;;;16.70;99.90;;;;;;5054104;28;20128;-23
2023/08/21 07:03:47;;;;;;;12.70;4.93;;;16.90;99.90;;;;;;5053651;28;20443;-24
2023/08/21 07:06:12;;;;;;;12.73;4.32;;;17.00;99.90;;;;;;5052883;28;20187;-23
2023/08/21 07:08:40;;;;;;;11.18;4.00;;;17.10;99.90;;;;;;5052088;28;20142;-23
2023/08/21 07:11:10;;;;;;;7.07;3.42;;;17.30;99.90;;;;;;5053495;28;20049;-24
2023/08/21 07:13:36;;;;;;;6.78;4.07;;;17.40;99.90;;;;;;5061784;28;20045;-23
2023/08/21 07:16:05;;;;;;;11.05;3.20;;;17.60;99.90;;;;;;5073469;28;20405;-24
2023/08/21 07:18:33;;;;;;;9.13;3.72;;;17.70;99.90;;;;;;5073413;28;20132;-23
2023/08/21 07:20:59;;;;;;;9.02;3.28;;;17.80;99.90;;;;;;5073362;28;20510;-24
2023/08/21 07:23:25;;;;;;;7.00;3.08;;;17.90;99.90;;;;;;5070060;28;20037;-23
2023/08/21 07:25:51;;;;;;;9.55;3.42;;;18.10;99.90;;;;;;5053308;28;20048;-24
2023/08/21 07:28:17;;;;;;;12.35;3.55;;;18.20;99.90;;;;;;5053340;28;20402;-24
2023/08/21 07:30:43;;;;;;;8.90;3.15;;;18.40;99.90;;;;;;5053775;28;20091;-24
2023/08/21 07:33:09;;;;;;;5.75;2.00;;;18.50;99.90;;;;;;5052734;28;20045;-24
2023/08/21 07:35:35;;;;;;;8.50;2.33;;;18.50;99.90;;;;;;5064823;28;20177;-23
2023/08/21 07:38:01;;;;;;;7.43;2.45;;;18.60;99.90;;;;;;5051980;28;20056;-25
2023/08/21 07:40:27;;;;;;;4.18;1.90;;;18.80;99.90;;;;;;5060062;28;20044;-24
2023/08/21 07:42:53;;;;;;;5.18;1.83;;;18.90;99.90;;;;;;5060372;28;20045;-24
2023/08/21 07:45:19;;;;;;;4.75;1.45;;;19.00;99.90;;;;;;5053652;28;20049;-24
2023/08/21 07:47:45;;;;;;;5.93;1.85;;;19.10;99.90;;;;;;5053388;28;20053;-24
2023/08/21 07:50:11;;;;;;;5.72;1.33;;;19.20;99.90;;;;;;5052736;28;20047;-24
2023/08/21 07:52:36;;;;;;;7.60;2.47;;;19.20;99.90;;;;;;5053061;28;20037;-24
2023/08/21 07:55:03;;;;;;;5.93;1.80;;;19.40;99.90;;;;;;5052024;28;20056;-24
2023/08/21 07:57:30;;;;;;;5.13;1.10;;;19.50;99.90;;;;;;5052020;28;20045;-24
2023/08/21 07:59:56;;;;;;;5.03;1.10;;;19.60;99.90;;;;;;5053275;28;20045;-24
2023/08/21 08:02:22;;;;;;;3.40;0.90;;;19.70;99.90;;;;;;5062282;28;20106;-24
2023/08/21 08:04:48;;;;;;;6.15;1.33;;;19.70;99.90;;;;;;5053317;28;20053;-24
2023/08/21 08:07:14;;;;;;;4.30;0.85;;;19.90;99.90;;;;;;5061783;28;20047;-25
2023/08/21 08:09:39;;;;;;;7.05;2.00;;;20.00;73.70;;;;;;5076149;28;20143;-25
2023/08/21 08:12:06;;;;;;;4.00;1.15;;;20.10;7.30;;;;;;5076755;28;20052;-25
2023/08/21 08:14:32;;;;;;;3.70;1.05;;;20.20;1.00;;;;;;5058562;28;20470;-26
2023/08/21 08:16:57;;;;;;;5.07;1.23;;;20.20;99.90;;;;;;5076049;28;20052;-25
2023/08/21 08:19:23;;;;;;;2.60;0.90;;;20.30;99.90;;;;;;5070904;28;20037;-25
2023/08/21 08:21:50;;;;;;;3.33;0.70;;;20.30;99.90;;;;;;5055993;28;20499;-25
2023/08/21 08:24:16;;;;;;;4.10;0.57;;;20.40;99.90;;;;;;5028732;28;20121;-26
2023/08/21 08:26:42;;;;;;;3.58;0.93;;;20.50;99.90;;;;;;5076226;28;20123;-26
2023/08/21 08:29:09;;;;;;;3.72;0.90;;;20.50;1.00;;;;;;5076450;28;20052;-25
2023/08/21 08:31:34;;;;;;;4.10;0.90;;;20.50;1.00;;;;;;5065810;28;20044;-25
2023/08/21 08:34:00;;;;;;;6.43;1.63;;;20.60;1.00;;;;;;5056051;28;20049;-25
2023/08/21 08:36:26;;;;;;;4.90;3.15;;;20.60;1.00;;;;;;5056047;28;20051;-25
2023/08/21 08:38:52;;;;;;;3.53;1.10;;;20.80;1.00;;;;;;5054614;28;20136;-26
2023/08/21 08:41:38;;;;;;;4.32;0.95;;;20.80;1.00;;;;;;5057981;28;20041;-26
2023/08/21 08:44:04;;;;;;;4.03;0.80;;;20.90;99.90;;;;;;5055263;28;20037;-24
2023/08/21 08:46:30;;;;;;;4.57;1.52;;;21.10;1.00;;;;;;5055893;28;20482;-25
2023/08/21 08:48:57;;;;;;;3.30;0.80;;;21.00;99.90;;;;;;5054702;28;20045;-25
2023/08/21 08:51:30;;;;;;;5.15;1.20;;;21.10;99.90;;;;;;5055811;28;20063;-25
2023/08/21 08:53:57;;;;;;;3.15;0.70;;;21.30;99.90;;;;;;5074282;28;20048;-24
2023/08/21 08:56:24;;;;;;;5.25;1.15;;;21.40;99.50;;;;;;5063797;28;20066;-25
2023/08/21 08:58:49;;;;;;;4.53;0.90;;;21.40;1.00;;;;;;5058249;28;20080;-25
2023/08/21 09:01:15;;;;;;;6.75;2.45;;;21.50;50.40;;;;;;5060192;28;20064;-24
2023/08/21 09:03:41;;;;;;;3.05;0.70;;;21.60;94.40;;;;;;5058435;28;20539;-26
2023/08/21 09:06:07;;;;;;;3.17;0.90;;;21.80;1.00;;;;;;5055776;28;20053;-26
2023/08/21 09:08:33;;;;;;;3.30;1.00;;;22.40;1.00;;;;;;5054035;28;20495;-25
2023/08/21 09:11:02;;;;;;;4.05;0.95;;;23.40;1.00;;;;;;5055771;28;20064;-25
2023/08/21 09:13:30;;;;;;;6.22;1.17;;;24.50;99.90;;;;;;5063376;28;20041;-26
2023/08/21 09:15:56;;;;;;;3.35;1.48;;;24.90;99.90;;;;;;5054941;28;20048;-26
2023/08/21 09:18:21;;;;;;;4.72;1.08;;;25.10;1.00;;;;;;5057765;28;20406;-26
2023/08/21 09:20:48;;;;;;;5.28;1.20;;;25.30;1.00;;;;;;5066205;28;20052;-26
2023/08/21 09:23:16;;;;;;;4.75;1.30;;;25.80;1.00;;;;;;5075952;28;20429;-26
2023/08/21 09:25:44;;;;;;;3.00;0.93;;;25.70;1.00;;;;;;5056933;28;20053;-26
2023/08/21 09:28:10;;;;;;;3.72;1.40;;;26.00;99.90;;;;;;5055341;28;20128;-26
2023/08/21 09:30:53;;;;;;;6.07;1.20;;;26.40;99.90;;;;;;5060213;28;20445;-26
2023/08/21 09:33:23;;;;;;;2.88;1.05;;;26.80;99.90;;;;;;5075528;28;20052;-26
2023/08/21 09:35:52;;;;;;;4.90;1.27;;;26.50;99.90;;;;;;5073779;28;20052;-27
2023/08/21 09:38:19;;;;;;;5.53;1.10;;;26.70;99.90;;;;;;5074734;28;20044;-26
2023/08/21 09:40:54;;;;;;;3.35;1.30;;;26.50;99.90;;;;;;5072154;28;20123;-26
2023/08/21 09:43:24;;;;;;;2.42;0.88;;;26.60;1.00;;;;;;5061120;28;20048;-26
2023/08/21 09:45:55;;;;;;;5.32;1.23;;;26.40;1.00;;;;;;5054431;28;20048;-26
2023/08/21 09:48:27;;;;;;;4.07;1.08;;;26.50;1.00;;;;;;5054759;28;20056;-27
2023/08/21 09:50:53;;;;;;;3.65;0.80;;;26.40;1.00;;;;;;5055292;28;20490;-24
2023/08/21 09:53:22;;;;;;;4.93;1.08;;;26.40;1.00;;;;;;5054961;28;20111;-27
2023/08/21 09:55:52;;;;;;;4.25;1.00;;;26.40;1.00;;;;;;5054398;28;20064;-27
2023/08/21 09:58:19;;;;;;;4.18;1.10;;;26.60;1.00;;;;;;5054448;28;20052;-27
2023/08/21 10:00:48;;;;;;;3.05;0.98;;;27.00;1.00;;;;;;5053994;28;20387;-26
2023/08/21 10:03:17;;;;;;;3.80;0.88;;;26.90;1.00;;;;;;5054569;28;20383;-26
2023/08/21 10:05:43;;;;;;;4.72;1.00;;;27.20;1.00;;;;;;5053131;28;20045;-26
2023/08/21 10:08:09;;;;;;;4.88;1.00;;;27.20;1.00;;;;;;5054063;28;20086;-27
2023/08/21 10:10:38;;;;;;;3.17;1.05;;;27.30;1.00;;;;;;5054259;28;20075;-26
2023/08/21 10:13:05;;;;;;;3.60;1.40;;;27.30;99.90;;;;;;5062963;28;20102;-27
2023/08/21 10:15:35;;;;;;;2.33;0.82;;;27.40;99.90;;;;;;5056538;28;20048;-26
2023/08/21 10:18:23;;;;;;;5.05;1.10;;;27.80;99.90;;;;;;5052909;28;20137;-26
2023/08/21 10:20:49;;;;;;;4.25;1.00;;;27.40;99.90;;;;;;5053117;28;20498;-26
2023/08/21 10:23:29;;;;;;;4.10;1.23;;;27.40;99.90;;;;;;5053233;28;20071;-27
2023/08/21 10:25:59;;;;;;;3.60;1.27;;;27.60;99.90;;;;;;5054063;28;20049;-27
2023/08/21 10:28:40;;;;;;;3.40;1.13;;;27.70;99.90;;;;;;5053307;28;20052;-26
2023/08/21 10:31:38;;;;;;;4.55;1.20;;;27.50;99.90;;;;;;5054243;28;20483;-26
2023/08/21 10:34:05;;;;;;;3.65;0.88;;;27.30;99.90;;;;;;5053401;28;20049;-27
2023/08/21 10:36:43;;;;;;;6.82;1.75;;;27.20;99.90;;;;;;5053175;28;20071;-27
2023/08/21 10:39:25;;;;;;;2.47;1.02;;;27.20;99.90;;;;;;5053937;28;20041;-26
2023/08/21 10:42:00;;;;;;;2.87;0.97;;;27.20;99.90;;;;;;5057775;28;20068;-27
2023/08/21 10:44:48;;;;;;;4.35;1.45;;;27.10;99.90;;;;;;5053515;28;20311;-27
2023/08/21 10:47:16;;;;;;;5.85;1.38;;;27.90;99.90;;;;;;5065105;28;20394;-27
2023/08/21 10:49:46;;;;;;;3.50;1.17;;;28.30;99.90;;;;;;5073696;28;20049;-27
2023/08/21 10:52:12;;;;;;;4.10;1.10;;;28.60;99.90;;;;;;5073697;28;20517;-27
2023/08/21 10:54:49;;;;;;;5.68;1.10;;;28.60;99.90;;;;;;5073532;28;20076;-26
2023/08/21 10:57:15;;;;;;;4.88;1.20;;;28.50;99.90;;;;;;5072948;28;20045;-27
2023/08/21 10:59:58;;;;;;;3.03;1.00;;;28.70;99.90;;;;;;5060319;28;20045;-26
2023/08/21 11:02:29;;;;;;;5.13;1.10;;;29.00;99.90;;;;;;5055389;28;20392;-28
2023/08/21 11:04:56;;;;;;;4.78;1.25;;;28.50;99.90;;;;;;5058841;28;20071;-27
2023/08/21 11:07:22;;;;;;;4.88;1.13;;;28.10;99.90;;;;;;5064016;28;20053;-27
2023/08/21 11:09:48;;;;;;;4.50;1.00;;;27.90;99.90;;;;;;5071909;28;20113;-27
2023/08/21 11:12:32;;;;;;;4.60;1.20;;;28.10;99.90;;;;;;5073161;28;20059;-27
2023/08/21 11:14:58;;;;;;;3.80;1.23;;;27.70;99.90;;;;;;5059483;28;20048;-27
2023/08/21 11:17:23;;;;;;;4.10;1.42;;;28.00;99.90;;;;;;5054642;28;20045;-27
2023/08/21 11:19:50;;;;;;;5.10;1.23;;;28.00;99.90;;;;;;5053046;28;20037;-26
2023/08/21 11:22:16;;;;;;;3.92;0.85;;;28.20;99.90;;;;;;5053274;28;20049;-28
2023/08/21 11:24:50;;;;;;;4.30;1.23;;;28.30;99.90;;;;;;5052645;28;20044;-27
2023/08/21 11:27:18;;;;;;;3.65;0.68;;;28.30;99.90;;;;;;5063353;28;20083;-27
2023/08/21 11:29:46;;;;;;;5.18;1.08;;;28.40;99.90;;;;;;5053281;28;20549;-27
2023/08/21 11:32:17;;;;;;;6.93;1.48;;;28.40;99.90;;;;;;5053530;28;20053;-27
2023/08/21 11:34:49;;;;;;;3.75;1.02;;;28.50;99.90;;;;;;5053167;28;20048;-27
2023/08/21 11:37:23;;;;;;;5.43;1.63;;;28.00;99.90;;;;;;5053152;28;20067;-25
2023/08/21 11:39:53;;;;;;;5.85;0.90;;;27.90;99.90;;;;;;5059795;28;20044;-27
2023/08/21 11:42:21;;;;;;;5.43;1.00;;;27.20;99.90;;;;;;5075904;28;20087;-27
2023/08/21 11:44:50;;;;;;;7.10;1.30;;;26.90;99.90;;;;;;5059401;28;20463;-27
2023/08/21 11:47:18;;;;;;;5.90;1.10;;;27.20;99.90;;;;;;5076907;28;20055;-27
2023/08/21 11:49:47;;;;;;;5.57;1.15;;;27.10;99.90;;;;;;5058808;28;20078;-27
2023/08/21 11:52:17;;;;;;;4.63;1.08;;;26.40;99.90;;;;;;5056486;28;20053;-27
2023/08/21 11:54:43;;;;;;;4.07;1.13;;;26.20;99.90;;;;;;5057363;28;20077;-27
2023/08/21 11:57:12;;;;;;;4.57;1.13;;;25.70;99.90;;;;;;5056817;28;20459;-27
2023/08/21 11:59:38;;;;;;;4.05;1.30;;;25.50;99.90;;;;;;5055443;28;20055;-27
2023/08/21 12:02:15;;;;;;;6.53;0.95;;;25.30;99.90;;;;;;5031126;28;20053;-27
2023/08/21 12:04:42;;;;;;;5.10;1.10;;;25.80;99.90;;;;;;5055802;28;20514;-27
2023/08/21 12:07:07;;;;;;;3.22;0.80;;;26.30;99.90;;;;;;5055266;28;20064;-27
2023/08/21 12:09:33;;;;;;;4.15;1.15;;;27.00;99.90;;;;;;5056367;28;20049;-27
2023/08/21 12:11:59;;;;;;;5.55;1.00;;;27.50;99.90;;;;;;5057386;28;20053;-27
2023/08/21 12:14:25;;;;;;;2.53;0.65;;;28.00;99.90;;;;;;5064586;28;20462;-27
2023/08/21 12:16:51;;;;;;;4.85;1.23;;;27.50;99.90;;;;;;5076412;28;20052;-26
2023/08/21 12:19:17;;;;;;;3.25;0.68;;;27.20;99.90;;;;;;5076201;28;20378;-27
2023/08/21 12:21:42;;;;;;;3.75;0.90;;;27.20;99.90;;;;;;5076311;28;20052;-27
2023/08/21 12:24:08;;;;;;;5.47;1.00;;;27.80;99.90;;;;;;5072478;28;20048;-27
2023/08/21 12:26:34;;;;;;;7.35;1.42;;;28.40;99.90;;;;;;5055584;28;20045;-27
2023/08/21 12:29:00;;;;;;;5.75;1.00;;;28.60;99.90;;;;;;5056266;28;20086;-27
2023/08/21 12:31:26;;;;;;;6.05;0.80;;;28.90;99.90;;;;;;5056196;28;20045;-27
2023/08/21 12:33:52;;;;;;;7.45;1.55;;;28.50;99.90;;;;;;5055190;28;20045;-28
2023/08/21 12:36:18;;;;;;;3.33;0.85;;;28.40;99.90;;;;;;5059523;28;20560;-27
2023/08/21 12:38:44;;;;;;;12.82;1.40;;;29.00;99.90;;;;;;5075930;28;20048;-28
2023/08/21 12:41:09;;;;;;;3.75;1.40;;;28.70;99.90;;;;;;5075997;28;20089;-27
2023/08/21 12:43:35;;;;;;;2.90;0.75;;;28.80;99.90;;;;;;5075978;28;20045;-27